Time;durP1;ratioP1;P1;durP2;ratioP2;P2;SDS_P1;SDS_P2;PMS_P1;PMS_P2;Temp;Humidity;BMP_temperature;BMP_pressure;BME280_temperature;BME280_humidity;BME280_pressure;Samples;Min_cycle;Max_cycle;Signal;HPM_P1;HPM_P2
2023/04/20 00:01:46;;;;;;;;;;;;;;;10.52;36.77;100999.47;4924749;28;6982;-76
2023/04/20 00:04:11;;;;;;;;;;;;;;;10.47;37.11;100993.19;4918575;28;7006;-77
2023/04/20 00:06:37;;;;;;;;;;;;;;;10.43;36.90;100994.69;4941878;28;7184;-75
2023/04/20 00:09:03;;;;;;;;;;;;;;;10.37;37.36;100997.75;4929430;28;7131;-77
2023/04/20 00:11:29;;;;;;;;;;;;;;;10.34;36.88;100991.56;4926940;28;6780;-77
2023/04/20 00:13:55;;;;;;;;;;;;;;;10.31;37.27;100997.38;4929571;28;7145;-77
2023/04/20 00:16:20;;;;;;;;;;;;;;;10.26;36.97;100991.13;4922406;28;6777;-77
2023/04/20 00:18:46;;;;;;;;;;;;;;;10.22;36.64;100986.59;4932032;28;8607;-75
2023/04/20 00:21:13;;;;;;;;;;;;;;;10.16;37.43;100986.25;4909674;28;7066;-77
2023/04/20 00:23:38;;;;;;;;;;;;;;;10.10;37.14;100974.84;4928901;28;6796;-77
2023/04/20 00:26:04;;;;;;;;;;;;;;;10.04;37.47;100971.91;4945336;28;6772;-75
2023/04/20 00:28:30;;;;;;;;;;;;;;;10.00;37.82;100964.84;4904389;28;7170;-77
2023/04/20 00:30:56;;;;;;;;;;;;;;;9.95;37.39;100959.44;4929889;28;6935;-75
2023/04/20 00:33:21;;;;;;;;;;;;;;;9.92;37.55;100960.94;4947064;28;6776;-77
2023/04/20 00:35:47;;;;;;;;;;;;;;;9.88;38.20;100952.19;4944919;28;6987;-77
2023/04/20 00:38:13;;;;;;;;;;;;;;;9.86;37.84;100948.66;4946372;28;6764;-74
2023/04/20 00:40:41;;;;;;;;;;;;;;;9.83;38.12;100948.50;4926846;28;7056;-77
2023/04/20 00:43:11;;;;;;;;;;;;;;;9.78;38.23;100943.09;4925512;28;6990;-75
2023/04/20 00:45:37;;;;;;;;;;;;;;;9.73;37.96;100944.47;4922778;28;7055;-76
2023/04/20 00:48:04;;;;;;;;;;;;;;;9.67;38.37;100950.13;4946739;28;6795;-77
2023/04/20 00:50:30;;;;;;;;;;;;;;;9.63;38.58;100944.72;4926890;28;6997;-77
2023/04/20 00:52:57;;;;;;;;;;;;;;;9.59;38.79;100935.97;4946779;28;6847;-75
2023/04/20 00:55:22;;;;;;;;;;;;;;;9.58;38.38;100937.66;4918102;28;6793;-77
2023/04/20 00:57:48;;;;;;;;;;;;;;;9.59;38.00;100930.84;4927158;28;7280;-77
2023/04/20 01:00:15;;;;;;;;;;;;;;;9.58;38.34;100935.09;4941655;28;6936;-74
2023/04/20 01:02:40;;;;;;;;;;;;;;;9.57;38.76;100920.53;4943967;28;7158;-76
2023/04/20 01:05:07;;;;;;;;;;;;;;;9.57;38.04;100924.75;4941744;28;7119;-74
2023/04/20 01:07:32;;;;;;;;;;;;;;;9.56;38.66;100923.91;4923170;28;6784;-76
2023/04/20 01:09:58;;;;;;;;;;;;;;;9.55;38.41;100921.22;4910945;28;7110;-76
2023/04/20 01:12:24;;;;;;;;;;;;;;;9.55;37.95;100918.69;4925838;28;6837;-77
2023/04/20 01:14:50;;;;;;;;;;;;;;;9.53;38.19;100910.03;4942238;28;7135;-77
2023/04/20 01:17:16;;;;;;;;;;;;;;;9.53;37.97;100910.91;4946558;28;6780;-77
2023/04/20 01:19:43;;;;;;;;;;;;;;;9.51;38.21;100904.81;4922738;28;6796;-77
2023/04/20 01:22:19;;;;;;;;;;;;;;;9.51;38.56;100898.78;4940364;28;7222;-77
2023/04/20 01:24:46;;;;;;;;;;;;;;;9.51;37.53;100899.69;4926785;28;7086;-77
2023/04/20 01:27:15;;;;;;;;;;;;;;;9.55;37.85;100899.06;4942865;28;6843;-77
2023/04/20 01:29:42;;;;;;;;;;;;;;;9.57;37.89;100901.72;4942298;28;6793;-77
2023/04/20 01:32:08;;;;;;;;;;;;;;;9.58;38.09;100895.81;4924070;28;7389;-77
2023/04/20 01:34:34;;;;;;;;;;;;;;;9.59;37.40;100892.47;4943043;28;6868;-77
2023/04/20 01:37:01;;;;;;;;;;;;;;;9.58;37.46;100889.03;4943462;28;6764;-77
2023/04/20 01:39:27;;;;;;;;;;;;;;;9.59;38.32;100889.91;4944770;28;6784;-77
2023/04/20 01:41:52;;;;;;;;;;;;;;;9.58;37.72;100888.13;4923446;28;6978;-77
2023/04/20 01:44:18;;;;;;;;;;;;;;;9.58;38.18;100883.91;4923433;28;7772;-78
2023/04/20 01:46:44;;;;;;;;;;;;;;;9.59;37.75;100875.44;4926411;28;6781;-77
2023/04/20 01:49:09;;;;;;;;;;;;;;;9.63;38.06;100875.63;4924806;28;6789;-75
2023/04/20 01:51:36;;;;;;;;;;;;;;;9.68;38.20;100875.09;4942187;28;7129;-77
2023/04/20 01:54:02;;;;;;;;;;;;;;;9.73;37.46;100868.59;4926264;28;7201;-77
2023/04/20 01:56:28;;;;;;;;;;;;;;;9.80;37.97;100869.81;4916076;28;6951;-74
2023/04/20 01:58:54;;;;;;;;;;;;;;;9.89;37.47;100863.47;4945413;28;6981;-76
2023/04/20 02:01:20;;;;;;;;;;;;;;;9.97;37.58;100862.25;4936014;28;6874;-77
2023/04/20 02:03:47;;;;;;;;;;;;;;;10.02;36.91;100855.69;4942127;28;7131;-75
2023/04/20 02:06:13;;;;;;;;;;;;;;;10.06;37.15;100852.53;4926264;28;7077;-77
2023/04/20 02:08:39;;;;;;;;;;;;;;;10.08;37.07;100853.50;4935393;28;6777;-77
2023/04/20 02:11:05;;;;;;;;;;;;;;;10.08;37.31;100852.59;4915721;28;6980;-77
2023/04/20 02:13:31;;;;;;;;;;;;;;;10.08;37.12;100853.50;4941000;28;7217;-75
2023/04/20 02:15:56;;;;;;;;;;;;;;;10.09;36.61;100855.25;4909685;28;6963;-78
2023/04/20 02:18:23;;;;;;;;;;;;;;;10.13;37.10;100848.63;4937983;28;6874;-77
2023/04/20 02:20:49;;;;;;;;;;;;;;;10.18;37.12;100849.75;4925358;28;7063;-75
2023/04/20 02:23:14;;;;;;;;;;;;;;;10.23;36.36;100850.03;4921985;28;6835;-77
2023/04/20 02:25:40;;;;;;;;;;;;;;;10.26;36.52;100845.09;4927677;28;6773;-75
2023/04/20 02:28:06;;;;;;;;;;;;;;;10.27;36.40;100827.22;4941882;28;8061;-75
2023/04/20 02:30:31;;;;;;;;;;;;;;;10.28;36.76;100823.91;4942717;28;6804;-75
2023/04/20 02:32:58;;;;;;;;;;;;;;;10.30;36.36;100820.53;4940074;28;7021;-75
2023/04/20 02:35:25;;;;;;;;;;;;;;;10.30;36.26;100823.97;4926807;28;8221;-75
2023/04/20 02:37:50;;;;;;;;;;;;;;;10.31;36.35;100812.91;4941360;28;7274;-76
2023/04/20 02:40:16;;;;;;;;;;;;;;;10.32;36.79;100808.69;4939918;28;6822;-76
2023/04/20 02:42:42;;;;;;;;;;;;;;;10.34;36.49;100810.53;4939376;28;7095;-75
2023/04/20 02:45:08;;;;;;;;;;;;;;;10.34;36.36;100800.28;4942327;28;6839;-75
2023/04/20 02:47:34;;;;;;;;;;;;;;;10.34;36.93;100797.72;4943430;28;6857;-75
2023/04/20 02:50:00;;;;;;;;;;;;;;;10.35;36.23;100786.69;4940216;28;6953;-76
2023/04/20 02:52:25;;;;;;;;;;;;;;;10.36;36.64;100787.53;4925942;28;7319;-75
2023/04/20 02:54:51;;;;;;;;;;;;;;;10.36;36.52;100784.97;4937996;28;6975;-75
2023/04/20 02:57:17;;;;;;;;;;;;;;;10.36;36.61;100783.31;4911412;28;6958;-75
2023/04/20 02:59:42;;;;;;;;;;;;;;;10.37;36.38;100782.50;4940090;28;7507;-75
2023/04/20 03:02:08;;;;;;;;;;;;;;;10.38;36.77;100783.38;4935685;28;6804;-76
2023/04/20 03:04:34;;;;;;;;;;;;;;;10.40;36.73;100766.44;4916084;28;8912;-75
2023/04/20 03:07:00;;;;;;;;;;;;;;;10.41;37.09;100758.84;4945474;28;6796;-75
2023/04/20 03:09:26;;;;;;;;;;;;;;;10.42;36.62;100752.06;4921906;28;6999;-75
2023/04/20 03:11:53;;;;;;;;;;;;;;;10.44;36.67;100754.72;4943750;28;7281;-76
2023/04/20 03:14:19;;;;;;;;;;;;;;;10.45;37.01;100759.03;4946693;28;6799;-75
2023/04/20 03:16:45;;;;;;;;;;;;;;;10.45;36.69;100759.03;4929868;28;6927;-75
2023/04/20 03:19:10;;;;;;;;;;;;;;;10.47;37.30;100750.59;4926034;28;7174;-75
2023/04/20 03:21:36;;;;;;;;;;;;;;;10.48;36.79;100754.97;4926270;28;6777;-75
2023/04/20 03:24:02;;;;;;;;;;;;;;;10.51;36.63;100749.09;4932207;28;7007;-75
2023/04/20 03:26:28;;;;;;;;;;;;;;;10.54;37.23;100757.84;4940538;28;7256;-75
2023/04/20 03:28:53;;;;;;;;;;;;;;;10.54;37.19;100760.41;4944224;28;7371;-75
2023/04/20 03:31:19;;;;;;;;;;;;;;;10.55;36.87;100763.84;4922457;28;6857;-75
2023/04/20 03:33:45;;;;;;;;;;;;;;;10.58;37.23;100765.72;4928260;28;7278;-76
2023/04/20 03:36:10;;;;;;;;;;;;;;;10.58;37.19;100751.19;4942804;28;6776;-75
2023/04/20 03:38:36;;;;;;;;;;;;;;;10.58;36.82;100740.94;4928008;28;6776;-76
2023/04/20 03:41:02;;;;;;;;;;;;;;;10.60;36.84;100747.03;4926241;28;6977;-75
2023/04/20 03:43:27;;;;;;;;;;;;;;;10.61;36.96;100741.09;4938092;28;6977;-75
2023/04/20 03:45:54;;;;;;;;;;;;;;;10.64;36.36;100735.25;4943516;28;6788;-75
2023/04/20 03:48:20;;;;;;;;;;;;;;;10.66;36.78;100731.97;4924079;28;6812;-75
2023/04/20 03:50:45;;;;;;;;;;;;;;;10.67;36.81;100737.97;4939802;28;6848;-76
2023/04/20 03:53:11;;;;;;;;;;;;;;;10.67;36.61;100731.19;4924374;28;7187;-75
2023/04/20 03:55:36;;;;;;;;;;;;;;;10.67;36.63;100728.63;4922914;28;6792;-75
2023/04/20 03:58:05;;;;;;;;;;;;;;;10.69;36.66;100734.69;4940520;28;7317;-75
2023/04/20 04:00:31;;;;;;;;;;;;;;;10.70;36.46;100739.00;4935149;28;6862;-75
2023/04/20 04:02:57;;;;;;;;;;;;;;;10.69;36.58;100732.13;4923627;28;7273;-75
2023/04/20 04:05:24;;;;;;;;;;;;;;;10.70;36.58;100723.63;4939728;28;6780;-76
2023/04/20 04:07:50;;;;;;;;;;;;;;;10.73;36.60;100724.63;4937272;28;7866;-75
2023/04/20 04:10:17;;;;;;;;;;;;;;;10.71;36.53;100721.97;4921400;28;6768;-75
2023/04/20 04:12:46;;;;;;;;;;;;;;;10.73;36.66;100727.19;4939825;28;7161;-75
2023/04/20 04:15:12;;;;;;;;;;;;;;;10.73;36.63;100722.06;4947505;28;6784;-75
2023/04/20 04:17:38;;;;;;;;;;;;;;;10.74;36.80;100723.81;4929577;28;6772;-75
2023/04/20 04:20:07;;;;;;;;;;;;;;;10.73;36.76;100724.63;4925493;28;6768;-75
2023/04/20 04:22:33;;;;;;;;;;;;;;;10.73;36.89;100719.50;4926858;28;7262;-75
2023/04/20 04:24:59;;;;;;;;;;;;;;;10.74;37.00;100731.50;4941404;28;6828;-76
2023/04/20 04:27:28;;;;;;;;;;;;;;;10.73;36.46;100732.31;4940768;28;8471;-75
2023/04/20 04:29:55;;;;;;;;;;;;;;;10.73;36.83;100724.63;4930383;28;6797;-76
2023/04/20 04:32:23;;;;;;;;;;;;;;;10.74;37.00;100731.50;4926571;28;7238;-75
2023/04/20 04:34:49;;;;;;;;;;;;;;;10.73;37.73;100729.75;4944613;28;6813;-75
2023/04/20 04:37:15;;;;;;;;;;;;;;;10.73;37.44;100732.31;4941019;28;6767;-75
2023/04/20 04:39:40;;;;;;;;;;;;;;;10.69;37.25;100727.00;4919433;28;7123;-75
2023/04/20 04:42:06;;;;;;;;;;;;;;;10.65;37.92;100725.09;4946991;28;7009;-75
2023/04/20 04:44:32;;;;;;;;;;;;;;;10.63;38.22;100729.25;4944806;28;6951;-75
2023/04/20 04:46:58;;;;;;;;;;;;;;;10.59;38.35;100723.91;4929951;28;7202;-75
2023/04/20 04:49:24;;;;;;;;;;;;;;;10.56;38.81;100724.59;4928851;28;7310;-76
2023/04/20 04:51:49;;;;;;;;;;;;;;;10.53;38.95;100721.88;4906187;28;7150;-75
2023/04/20 04:54:15;;;;;;;;;;;;;;;10.51;38.33;100726.03;4926913;28;6792;-76
2023/04/20 04:56:41;;;;;;;;;;;;;;;10.44;39.33;100712.00;4929837;28;8112;-76
2023/04/20 04:59:06;;;;;;;;;;;;;;;10.41;39.53;100714.38;4926764;28;6784;-75
2023/04/20 05:01:32;;;;;;;;;;;;;;;10.36;39.55;100718.38;4912996;28;7028;-75
2023/04/20 05:03:57;;;;;;;;;;;;;;;10.29;40.02;100717.16;4942446;28;7134;-75
2023/04/20 05:06:23;;;;;;;;;;;;;;;10.23;40.31;100711.69;4941725;28;6773;-77
2023/04/20 05:08:48;;;;;;;;;;;;;;;10.17;40.44;100711.38;4940033;28;6804;-77
2023/04/20 05:11:14;;;;;;;;;;;;;;;10.09;41.30;100704.16;4943786;28;6955;-75
2023/04/20 05:13:40;;;;;;;;;;;;;;;10.05;40.69;100703.91;4928187;28;6982;-75
2023/04/20 05:16:06;;;;;;;;;;;;;;;9.98;41.58;100700.13;4946985;28;6808;-74
2023/04/20 05:18:32;;;;;;;;;;;;;;;9.94;42.13;100691.38;4937735;28;6825;-75
2023/04/20 05:20:58;;;;;;;;;;;;;;;9.92;41.95;100699.78;4902626;28;6962;-75
2023/04/20 05:23:23;;;;;;;;;;;;;;;9.90;42.48;100702.28;4942197;28;6947;-76
2023/04/20 05:27:04;;;;;;;;;;;;;;;9.81;43.67;100699.19;5021309;28;6626;-76
2023/04/20 05:29:30;;;;;;;;;;;;;;;9.81;43.75;100696.63;5019792;28;8327;-76
2023/04/20 05:31:55;;;;;;;;;;;;;;;9.82;43.60;100693.28;5007885;28;6808;-76
2023/04/20 05:34:21;;;;;;;;;;;;;;;9.83;43.94;100697.59;4989471;28;6960;-75
2023/04/20 05:36:47;;;;;;;;;;;;;;;9.84;43.57;100705.34;4987505;28;7093;-75
2023/04/20 05:39:12;;;;;;;;;;;;;;;9.86;43.94;100703.78;5030644;28;6836;-75
2023/04/20 05:41:38;;;;;;;;;;;;;;;9.88;44.43;100701.28;5007205;28;6957;-75
2023/04/20 05:44:04;;;;;;;;;;;;;;;9.90;43.85;100702.28;5008014;28;7031;-75
2023/04/20 05:46:30;;;;;;;;;;;;;;;9.93;43.72;100702.44;5000218;28;7351;-75
2023/04/20 05:48:56;;;;;;;;;;;;;;;9.94;44.37;100711.88;4988630;28;6764;-75
2023/04/20 05:51:21;;;;;;;;;;;;;;;9.97;44.00;100706.03;4994631;28;6784;-76
2023/04/20 05:53:47;;;;;;;;;;;;;;;9.98;44.58;100708.66;5012188;28;7192;-74
2023/04/20 05:56:13;;;;;;;;;;;;;;;10.00;44.32;100704.53;4989335;28;6934;-75
2023/04/20 05:58:40;;;;;;;;;;;;;;;10.00;44.50;100701.09;5017395;28;7307;-75
2023/04/20 06:01:06;;;;;;;;;;;;;;;10.02;44.01;100706.31;4982258;28;12168;-75
2023/04/20 06:03:32;;;;;;;;;;;;;;;10.03;44.28;100703.81;4993488;28;7370;-75
2023/04/20 06:05:58;;;;;;;;;;;;;;;10.03;44.26;100698.69;5013322;28;6822;-75
2023/04/20 06:08:23;;;;;;;;;;;;;;;10.06;44.37;100703.09;5007916;28;7261;-75
2023/04/20 06:10:54;;;;;;;;;;;;;;;10.08;44.80;100712.63;4994312;28;7041;-75
2023/04/20 06:13:20;;;;;;;;;;;;;;;10.09;44.71;100704.16;5030157;28;6791;-75
2023/04/20 06:15:46;;;;;;;;;;;;;;;10.10;44.41;100703.34;5006165;28;7234;-75
2023/04/20 06:18:12;;;;;;;;;;;;;;;10.12;44.35;100703.44;4996786;28;6767;-75
2023/04/20 06:20:39;;;;;;;;;;;;;;;10.13;44.03;100702.63;4993680;28;7158;-75
2023/04/20 06:23:05;;;;;;;;;;;;;;;10.18;44.54;100701.19;5031036;28;7013;-75
2023/04/20 06:25:30;;;;;;;;;;;;;;;10.23;44.83;100702.34;5014766;28;7899;-75
2023/04/20 06:27:56;;;;;;;;;;;;;;;10.32;45.15;100698.50;4998089;28;7073;-75
2023/04/20 06:30:21;;;;;;;;;;;;;;;10.38;45.20;100691.13;5018182;28;7173;-75
2023/04/20 06:32:47;;;;;;;;;;;;;;;10.46;45.03;100689.03;5028533;28;6998;-75
2023/04/20 06:35:13;;;;;;;;;;;;;;;10.55;44.95;100679.28;5009296;28;6832;-75
2023/04/20 06:37:39;;;;;;;;;;;;;;;10.66;45.31;100675.59;4987436;28;7152;-75
2023/04/20 06:40:06;;;;;;;;;;;;;;;10.77;44.86;100673.59;4977213;28;8499;-75
2023/04/20 06:42:32;;;;;;;;;;;;;;;10.91;44.94;100666.59;5013246;28;7140;-75
2023/04/20 06:44:58;;;;;;;;;;;;;;;11.06;44.86;100673.28;4985388;28;6772;-75
2023/04/20 06:47:30;;;;;;;;;;;;;;;11.22;44.50;100675.84;5018720;28;6775;-76
2023/04/20 06:50:01;;;;;;;;;;;;;;;11.37;44.29;100660.31;4996257;28;6891;-75
2023/04/20 06:52:27;;;;;;;;;;;;;;;11.51;44.53;100662.66;4996903;28;7000;-75
2023/04/20 06:54:53;;;;;;;;;;;;;;;11.62;44.12;100663.19;4999476;28;6994;-75
2023/04/20 06:57:18;;;;;;;;;;;;;;;11.70;43.86;100656.72;4977552;28;6796;-75
2023/04/20 06:59:44;;;;;;;;;;;;;;;11.79;43.92;100662.31;5015260;28;7183;-75
2023/04/20 07:02:10;;;;;;;;;;;;;;;11.87;43.33;100656.63;4989206;28;6954;-76
2023/04/20 07:04:35;;;;;;;;;;;;;;;11.93;43.74;100654.34;4999885;28;6947;-76
2023/04/20 07:07:01;;;;;;;;;;;;;;;12.01;42.93;100654.69;4981912;28;6796;-75
2023/04/20 07:09:26;;;;;;;;;;;;;;;12.04;43.07;100650.63;4983765;28;6792;-75
2023/04/20 07:11:52;;;;;;;;;;;;;;;12.08;43.02;100657.66;5013091;28;7130;-76
2023/04/20 07:14:18;;;;;;;;;;;;;;;12.08;42.76;100647.41;5014601;28;7201;-75
2023/04/20 07:16:43;;;;;;;;;;;;;;;12.05;43.08;100641.25;4966715;28;6966;-75
2023/04/20 07:19:09;;;;;;;;;;;;;;;12.00;42.89;100648.69;4977762;28;6866;-75
2023/04/20 07:21:35;;;;;;;;;;;;;;;11.94;42.77;100648.41;4960103;28;7283;-75
2023/04/20 07:24:01;;;;;;;;;;;;;;;11.89;43.58;100645.63;5013046;28;6804;-75
2023/04/20 07:26:26;;;;;;;;;;;;;;;11.86;43.19;100649.72;4981899;28;6878;-76
2023/04/20 07:28:52;;;;;;;;;;;;;;;11.82;43.22;100643.56;4984540;28;6980;-75
2023/04/20 07:31:18;;;;;;;;;;;;;;;11.82;43.13;100643.56;4971201;28;7816;-75
2023/04/20 07:33:43;;;;;;;;;;;;;;;11.87;43.51;100646.34;4989072;28;7015;-75
2023/04/20 07:36:09;;;;;;;;;;;;;;;11.90;43.55;100639.66;4980398;28;6779;-76
2023/04/20 07:38:35;;;;;;;;;;;;;;;11.93;43.20;100644.06;4990337;28;6804;-76
2023/04/20 07:41:02;;;;;;;;;;;;;;;11.92;43.69;100640.63;4981577;28;6810;-76
2023/04/20 07:43:28;;;;;;;;;;;;;;;11.92;43.62;100644.88;4980696;28;6776;-76
2023/04/20 07:45:53;;;;;;;;;;;;;;;11.91;44.12;100640.56;4985609;28;7089;-76
2023/04/20 07:48:19;;;;;;;;;;;;;;;11.87;43.45;100642.09;4982654;28;6849;-76
2023/04/20 07:50:45;;;;;;;;;;;;;;;11.82;43.73;100638.44;4986860;28;7327;-76
2023/04/20 07:53:11;;;;;;;;;;;;;;;11.77;44.08;100638.22;5002295;28;6977;-76
2023/04/20 07:55:37;;;;;;;;;;;;;;;11.73;44.37;100633.75;5013607;28;6988;-76
2023/04/20 07:58:03;;;;;;;;;;;;;;;11.70;44.40;100631.06;5014983;28;6783;-76
2023/04/20 08:00:29;;;;;;;;;;;;;;;11.66;43.90;100629.13;5012978;28;6930;-76
2023/04/20 08:02:54;;;;;;;;;;;;;;;11.63;44.44;100631.56;4977854;28;6783;-76
2023/04/20 08:05:21;;;;;;;;;;;;;;;11.62;44.68;100635.81;4984321;28;6772;-76
2023/04/20 08:07:46;;;;;;;;;;;;;;;11.59;44.69;100632.22;4983146;28;6800;-76
2023/04/20 08:10:12;;;;;;;;;;;;;;;11.58;44.90;100633.03;5002337;28;7531;-76
2023/04/20 08:12:39;;;;;;;;;;;;;;;11.55;45.21;100628.66;5012136;28;7106;-76
2023/04/20 08:15:05;;;;;;;;;;;;;;;11.53;45.17;100636.25;4978219;28;6998;-76
2023/04/20 08:17:32;;;;;;;;;;;;;;;11.50;45.26;100636.13;4983650;28;6792;-76
2023/04/20 08:19:58;;;;;;;;;;;;;;;11.48;45.86;100632.56;5014795;28;6963;-76
2023/04/20 08:22:26;;;;;;;;;;;;;;;11.45;45.82;100637.56;4984016;28;6780;-76
2023/04/20 08:24:52;;;;;;;;;;;;;;;11.44;46.04;100629.78;4975711;28;7201;-76
2023/04/20 08:27:17;;;;;;;;;;;;;;;11.43;46.18;100631.50;4982708;28;7232;-76
2023/04/20 08:29:43;;;;;;;;;;;;;;;11.44;46.30;100633.25;4997319;28;6952;-76
2023/04/20 08:32:11;;;;;;;;;;;;;;;11.49;47.11;100623.22;4996513;28;7030;-76
2023/04/20 08:34:37;;;;;;;;;;;;;;;11.59;47.90;100619.38;4996336;28;7002;-76
2023/04/20 08:37:03;;;;;;;;;;;;;;;11.70;47.87;100619.88;4998642;28;6968;-76
2023/04/20 08:39:29;;;;;;;;;;;;;;;11.78;47.52;100619.47;5015120;28;6779;-76
2023/04/20 08:41:56;;;;;;;;;;;;;;;11.84;47.43;100621.44;4977461;28;6839;-76
2023/04/20 08:44:23;;;;;;;;;;;;;;;11.86;47.85;100621.47;4980712;28;7039;-76
2023/04/20 08:46:49;;;;;;;;;;;;;;;11.85;48.02;100617.16;4980900;28;7214;-76
2023/04/20 08:49:18;;;;;;;;;;;;;;;11.85;47.75;100612.91;4978674;28;6772;-76
2023/04/20 08:51:45;;;;;;;;;;;;;;;11.90;48.12;100626.81;5014001;28;6804;-76
2023/04/20 08:54:11;;;;;;;;;;;;;;;11.93;47.45;100618.41;4999021;28;7257;-76
2023/04/20 08:56:43;;;;;;;;;;;;;;;11.95;47.31;100615.09;4980578;28;6846;-76
2023/04/20 08:59:11;;;;;;;;;;;;;;;11.99;47.97;100615.22;4983052;28;6931;-76
2023/04/20 09:01:39;;;;;;;;;;;;;;;12.07;47.99;100616.50;5012352;28;7202;-76
2023/04/20 09:04:24;;;;;;;;;;;;;;;12.16;47.84;100610.88;4996305;28;7256;-76
2023/04/20 09:06:54;;;;;;;;;;;;;;;12.21;47.73;100614.53;5009935;28;6981;-75
2023/04/20 09:09:23;;;;;;;;;;;;;;;12.30;47.43;100612.38;4983378;28;6792;-76
2023/04/20 09:12:03;;;;;;;;;;;;;;;12.39;46.99;100611.03;4995624;28;7255;-76
2023/04/20 09:14:30;;;;;;;;;;;;;;;12.45;46.85;100612.16;4993230;28;7407;-76
2023/04/20 09:17:03;;;;;;;;;;;;;;;12.52;47.37;100610.75;5010928;28;6788;-76
2023/04/20 09:19:30;;;;;;;;;;;;;;;12.55;47.13;100608.28;5010662;28;7189;-76
2023/04/20 09:22:00;;;;;;;;;;;;;;;12.61;46.49;100608.56;4970922;28;7277;-76
2023/04/20 09:24:35;;;;;;;;;;;;;;;12.64;46.04;100603.56;4971870;28;7082;-76
2023/04/20 09:27:14;;;;;;;;;;;;;;;12.64;46.97;100600.97;4990676;28;7248;-76
2023/04/20 09:29:40;;;;;;;;;;;;;;;12.66;46.38;100603.63;4970992;28;7370;-75
2023/04/20 09:32:06;;;;;;;;;;;;;;;12.72;46.63;100595.28;5002336;28;6812;-75
2023/04/20 09:34:44;;;;;;;;;;;;;;;12.78;47.19;100600.69;4973456;28;10706;-78
2023/04/20 09:37:17;;;;;;;;;;;;;;;12.84;46.48;100602.66;4973334;28;7304;-80
2023/04/20 09:39:45;;;;;;;;;;;;;;;12.87;46.14;100601.09;5018626;28;7060;-80
2023/04/20 09:42:12;;;;;;;;;;;;;;;12.88;45.95;100592.56;4990314;28;6780;-76
2023/04/20 09:44:39;;;;;;;;;;;;;;;12.89;46.20;100599.44;4969473;28;7361;-79
2023/04/20 09:47:07;;;;;;;;;;;;;;;12.89;46.84;100594.31;4967291;28;7876;-78
2023/04/20 09:49:33;;;;;;;;;;;;;;;12.88;46.40;100592.56;4963141;28;8584;-77
2023/04/20 09:52:03;;;;;;;;;;;;;;;12.86;46.68;100586.47;4965046;28;8192;-77
2023/04/20 09:54:30;;;;;;;;;;;;;;;12.80;46.31;100593.91;4953031;28;8499;-78
2023/04/20 09:56:58;;;;;;;;;;;;;;;12.71;45.74;100598.69;4975765;28;8138;-77
2023/04/20 09:59:26;;;;;;;;;;;;;;;12.62;46.17;100594.91;4974809;28;8055;-81
2023/04/20 10:01:52;;;;;;;;;;;;;;;12.53;45.74;100594.50;4970992;28;8400;-75
2023/04/20 10:04:18;;;;;;;;;;;;;;;12.46;46.34;100592.50;4968585;28;7828;-80
2023/04/20 10:06:56;;;;;;;;;;;;;;;12.42;46.56;100588.03;4970540;28;7900;-79
2023/04/20 10:09:27;;;;;;;;;;;;;;;12.40;46.32;100590.50;4968302;28;7776;-80
2023/04/20 10:12:08;;;;;;;;;;;;;;;12.38;46.75;100587.00;4971279;28;8033;-77
2023/04/20 10:14:34;;;;;;;;;;;;;;;12.35;47.01;100592.03;4991798;28;7867;-79
2023/04/20 10:17:04;;;;;;;;;;;;;;;12.31;46.52;100582.41;4958625;28;7748;-79
2023/04/20 10:19:44;;;;;;;;;;;;;;;12.31;46.97;100580.72;5012629;28;12893;-77
2023/04/20 10:22:32;;;;;;;;;;;;;;;12.32;47.40;100577.34;4952894;28;8352;-76
2023/04/20 10:25:16;;;;;;;;;;;;;;;12.30;47.46;100573.84;4970521;28;7936;-78
2023/04/20 10:27:52;;;;;;;;;;;;;;;12.32;47.10;100572.19;4971255;28;8249;-76
2023/04/20 10:30:19;;;;;;;;;;;;;;;12.34;47.63;100562.84;4971541;28;8358;-80
2023/04/20 10:32:44;;;;;;;;;;;;;;;12.38;47.10;100568.16;4969676;28;7834;-78
2023/04/20 10:35:12;;;;;;;;;;;;;;;12.43;47.56;100562.41;4987532;28;7938;-80
2023/04/20 10:37:50;;;;;;;;;;;;;;;12.48;47.41;100555.75;4973611;28;7123;-75
2023/04/20 10:40:25;;;;;;;;;;;;;;;12.56;47.99;100557.78;4986444;28;8099;-80
2023/04/20 10:42:50;;;;;;;;;;;;;;;12.68;47.50;100552.28;4989870;28;7925;-76
2023/04/20 10:45:16;;;;;;;;;;;;;;;12.84;47.89;100554.63;4999425;28;11400;-79
2023/04/20 10:47:44;;;;;;;;;;;;;;;13.03;47.04;100545.09;5006625;28;10122;-77
2023/04/20 10:50:12;;;;;;;;;;;;;;;13.24;46.30;100550.25;5006837;28;11341;-80
2023/04/20 10:52:41;;;;;;;;;;;;;;;13.46;46.83;100545.94;4977215;28;8593;-79
2023/04/20 10:55:27;;;;;;;;;;;;;;;13.74;46.33;100541.84;4948182;28;7876;-79
2023/04/20 10:57:53;;;;;;;;;;;;;;;13.98;45.82;100543.59;5008187;28;7910;-78
2023/04/20 11:00:21;;;;;;;;;;;;;;;14.18;45.21;100539.13;4974603;28;8010;-78
2023/04/20 11:02:51;;;;;;;;;;;;;;;14.35;44.54;100536.28;4983542;28;7921;-78
2023/04/20 11:05:22;;;;;;;;;;;;;;;14.50;44.63;100539.41;4999279;28;8171;-74
2023/04/20 11:07:53;;;;;;;;;;;;;;;14.60;44.31;100539.72;4982197;28;9228;-76
2023/04/20 11:10:23;;;;;;;;;;;;;;;14.65;43.39;100530.41;4970102;28;8229;-76
2023/04/20 11:12:50;;;;;;;;;;;;;;;14.68;43.96;100531.38;4994252;28;7819;-76
2023/04/20 11:15:17;;;;;;;;;;;;;;;14.68;43.44;100533.97;4982412;28;8652;-79
2023/04/20 11:17:43;;;;;;;;;;;;;;;14.63;43.34;100526.91;4970370;28;8137;-77
2023/04/20 11:20:16;;;;;;;;;;;;;;;14.45;43.63;100540.94;4979150;28;8121;-79
2023/04/20 11:22:43;;;;;;;;;;;;;;;14.20;42.88;100558.13;5005617;28;7932;-80
2023/04/20 11:25:11;;;;;;;;;;;;;;;13.80;42.97;100567.84;4977936;28;8144;-82
2023/04/20 11:27:38;;;;;;;;;;;;;;;13.29;43.25;100576.16;5003274;28;8252;-78
2023/04/20 11:30:06;;;;;;;;;;;;;;;12.78;44.03;100562.13;4975404;28;7910;-86
2023/04/20 11:32:34;;;;;;;;;;;;;;;12.41;45.69;100558.00;4975939;28;8186;-84
2023/04/20 11:35:06;;;;;;;;;;;;;;;12.18;46.06;100557.88;5003720;28;8124;-82
2023/04/20 11:37:44;;;;;;;;;;;;;;;12.07;47.17;100559.97;4986406;28;8071;-80
2023/04/20 11:40:10;;;;;;;;;;;;;;;12.06;48.22;100538.53;4964347;28;8196;-78
2023/04/20 11:42:36;;;;;;;;;;;;;;;12.19;48.76;100532.22;4970240;28;8004;-76
2023/04/20 11:45:02;;;;;;;;;;;;;;;12.44;49.33;100538.44;4986500;28;8773;-75
2023/04/20 11:47:28;;;;;;;;;;;;;;;12.86;49.88;100532.47;4967490;28;8010;-75
2023/04/20 11:49:53;;;;;;;;;;;;;;;13.40;50.34;100535.41;4969311;28;8309;-75
2023/04/20 11:52:19;;;;;;;;;;;;;;;14.07;50.56;100530.16;5008260;28;7953;-75
2023/04/20 11:54:45;;;;;;;;;;;;;;;15.03;49.45;100512.75;4996795;28;7811;-75
2023/04/20 11:57:10;;;;;;;;;;;;;;;16.20;47.80;100516.13;4984965;28;6772;-75
2023/04/20 11:59:36;;;;;;;;;;;;;;;17.30;46.04;100512.78;5012989;28;6775;-75
2023/04/20 12:02:02;;;;;;;;;;;;;;;18.22;44.27;100507.75;4982730;28;7324;-75
2023/04/20 12:04:33;;;;;;;;;;;;;;;18.70;41.70;100499.91;4988036;28;7000;-75
2023/04/20 12:07:01;;;;;;;;;;;;;;;18.58;41.16;100501.41;4982755;28;8474;-75
2023/04/20 12:09:27;;;;;;;;;;;;;;;18.16;40.92;100508.50;4979917;28;7834;-75
2023/04/20 12:11:53;;;;;;;;;;;;;;;17.71;41.69;100507.59;4991525;28;7955;-75
2023/04/20 12:14:18;;;;;;;;;;;;;;;17.84;42.25;100506.13;4973079;28;8065;-75
2023/04/20 12:16:44;;;;;;;;;;;;;;;18.36;41.66;100497.63;4991574;28;7998;-75
2023/04/20 12:19:10;;;;;;;;;;;;;;;18.80;40.47;100498.31;4976802;28;8035;-75
2023/04/20 12:21:36;;;;;;;;;;;;;;;19.25;40.12;100491.19;4970209;28;8214;-75
2023/04/20 12:24:03;;;;;;;;;;;;;;;19.61;39.19;100492.53;4998648;28;7759;-75
2023/04/20 12:26:28;;;;;;;;;;;;;;;19.85;38.48;100484.16;4976844;28;7937;-75
2023/04/20 12:28:54;;;;;;;;;;;;;;;20.21;38.37;100483.69;4968941;28;7887;-75
2023/04/20 12:31:20;;;;;;;;;;;;;;;20.68;37.50;100475.41;4971539;28;8333;-75
2023/04/20 12:33:45;;;;;;;;;;;;;;;20.96;36.73;100466.94;4971067;28;8278;-75
2023/04/20 12:36:11;;;;;;;;;;;;;;;21.00;36.84;100462.59;4969004;28;7850;-75
2023/04/20 12:38:37;;;;;;;;;;;;;;;20.99;36.74;100476.50;4995705;28;8400;-75
2023/04/20 12:41:03;;;;;;;;;;;;;;;20.70;36.35;100477.16;4967533;28;8070;-75
2023/04/20 12:43:30;;;;;;;;;;;;;;;20.21;36.11;100476.72;4968280;28;7925;-75
2023/04/20 12:45:56;;;;;;;;;;;;;;;19.55;36.61;100490.72;4998198;28;8480;-75
2023/04/20 12:48:21;;;;;;;;;;;;;;;18.78;36.58;100482.69;4995144;28;8057;-75